createdAt,value
2018-04-12T00:01:05.235Z,6.00
2018-04-12T00:03:33.527Z,5.90
2018-04-12T00:06:01.056Z,5.90
2018-04-12T00:08:29.311Z,5.70
2018-04-12T00:10:56.795Z,5.70
2018-04-12T00:13:25.123Z,5.90
2018-04-12T00:15:52.622Z,5.90
2018-04-12T00:18:20.917Z,5.90
2018-04-12T00:20:48.434Z,5.90
2018-04-12T00:23:15.926Z,5.90
2018-04-12T00:25:44.187Z,6.00
2018-04-12T00:28:12.497Z,6.30
2018-04-12T00:30:40.028Z,6.20
2018-04-12T00:33:08.288Z,6.30
2018-04-12T00:35:35.812Z,6.30
2018-04-12T00:38:03.358Z,6.40
2018-04-12T00:40:30.837Z,6.20
2018-04-12T00:42:58.345Z,6.10
2018-04-12T00:45:26.619Z,6.10
2018-04-12T00:47:54.907Z,6.10
2018-04-12T00:50:22.457Z,6.10
2018-04-12T00:52:50.714Z,6.10
2018-04-12T00:55:18.954Z,6.10
2018-04-12T00:57:46.454Z,6.10
2018-04-12T01:00:14.749Z,6.00
2018-04-12T01:02:42.299Z,6.00
2018-04-12T01:05:10.607Z,6.00
2018-04-12T01:07:38.146Z,6.00
2018-04-12T01:10:05.680Z,5.90
2018-04-12T01:12:33.967Z,5.90
2018-04-12T01:15:02.237Z,5.90
2018-04-12T01:17:30.528Z,5.80
2018-04-12T01:19:58.080Z,5.80
2018-04-12T01:22:26.397Z,5.40
2018-04-12T01:24:53.917Z,5.40
2018-04-12T01:27:22.228Z,5.10
2018-04-12T01:29:49.739Z,5.00
2018-04-12T01:32:18.019Z,5.20
2018-04-12T01:34:46.303Z,5.30
2018-04-12T01:37:14.582Z,5.40
2018-04-12T01:39:42.867Z,5.40
2018-04-12T01:42:10.341Z,5.40
2018-04-12T01:44:38.788Z,5.50
2018-04-12T01:47:07.096Z,5.50
2018-04-12T01:49:34.617Z,5.40
2018-04-12T01:52:02.168Z,5.50
2018-04-12T01:54:29.672Z,5.50
2018-04-12T01:56:57.206Z,5.60
2018-04-12T01:59:25.488Z,5.80
2018-04-12T02:01:53.716Z,6.00
2018-04-12T02:04:21.227Z,6.00
2018-04-12T02:06:48.708Z,6.10
2018-04-12T02:09:16.217Z,6.20
2018-04-12T02:11:44.546Z,6.30
2018-04-12T02:14:12.025Z,6.20
2018-04-12T02:16:39.558Z,6.30
2018-04-12T02:19:07.071Z,6.30
2018-04-12T02:21:35.319Z,6.50
2018-04-12T02:24:02.786Z,6.40
2018-04-12T02:26:30.294Z,6.50
2018-04-12T02:28:57.816Z,6.40
2018-04-12T02:31:26.104Z,6.00
2018-04-12T02:33:53.631Z,6.00
2018-04-12T02:36:21.127Z,5.90
2018-04-12T02:38:48.630Z,6.00
2018-04-12T02:41:16.178Z,5.90
2018-04-12T02:43:43.644Z,5.80
2018-04-12T02:46:11.127Z,5.80
2018-04-12T02:51:12.532Z,6.00
2018-04-12T02:53:40.090Z,5.90
2018-04-12T02:56:07.639Z,6.00
2018-04-12T02:58:35.179Z,6.00
2018-04-12T03:01:03.461Z,6.10
2018-04-12T03:03:31.784Z,6.10
2018-04-12T03:05:59.294Z,6.10
2018-04-12T03:08:27.611Z,5.60
2018-04-12T03:10:55.090Z,5.50
2018-04-12T03:13:22.620Z,5.50
2018-04-12T03:15:50.132Z,5.40
2018-04-12T03:18:17.602Z,5.20
2018-04-12T03:20:45.870Z,5.20
2018-04-12T03:23:14.135Z,5.20
2018-04-12T03:25:42.435Z,5.20
2018-04-12T03:28:09.980Z,5.20
2018-04-12T03:30:38.230Z,5.30
2018-04-12T03:33:05.735Z,5.30
2018-04-12T03:35:33.243Z,5.30
2018-04-12T03:38:02.728Z,5.30
2018-04-12T03:40:30.249Z,5.50
2018-04-12T03:42:57.762Z,5.60
2018-04-12T03:45:25.299Z,5.70
2018-04-12T03:47:52.772Z,5.60
2018-04-12T03:50:20.392Z,5.60
2018-04-12T03:52:51.654Z,5.60
2018-04-12T03:55:19.170Z,5.70
2018-04-12T03:57:47.510Z,5.90
2018-04-12T04:00:15.760Z,5.90
2018-04-12T04:02:43.283Z,5.90
2018-04-12T04:05:11.552Z,6.00
2018-04-12T04:07:39.818Z,6.00
2018-04-12T04:10:07.286Z,6.00
2018-04-12T04:12:35.577Z,6.10
2018-04-12T04:15:25.397Z,6.10
2018-04-12T04:18:06.947Z,6.10
2018-04-12T04:20:47.002Z,5.90
2018-04-12T04:23:14.517Z,5.90
2018-04-12T04:25:42.035Z,6.00
2018-04-12T04:28:09.548Z,6.00
2018-04-12T04:30:37.028Z,6.00
2018-04-12T04:33:05.261Z,6.00
2018-04-12T04:35:32.777Z,6.00
2018-04-12T04:38:00.299Z,5.90
2018-04-12T04:40:27.783Z,5.90
2018-04-12T04:42:55.340Z,5.90
2018-04-12T04:45:22.891Z,5.90
2018-04-12T04:47:51.153Z,6.00
2018-04-12T04:50:19.469Z,6.00
2018-04-12T04:52:47.003Z,5.90
2018-04-12T04:55:14.489Z,6.10
2018-04-12T04:57:42.032Z,6.20
2018-04-12T05:00:09.529Z,6.40
2018-04-12T05:02:37.213Z,6.60
2018-04-12T05:05:04.704Z,6.60
2018-04-12T05:07:32.240Z,6.60
2018-04-12T05:09:59.717Z,6.60
2018-04-12T05:12:27.210Z,6.70
2018-04-12T05:14:54.708Z,6.70
2018-04-12T05:17:22.190Z,6.70
2018-04-12T05:19:49.723Z,6.80
2018-04-12T05:22:17.239Z,6.90
2018-04-12T05:24:44.716Z,6.80
2018-04-12T05:27:12.229Z,6.80
2018-04-12T05:29:39.715Z,6.80
2018-04-12T05:32:07.219Z,7.00
2018-04-12T05:34:34.734Z,7.70
2018-04-12T05:37:02.243Z,9.00
2018-04-12T05:39:30.580Z,11.40
2018-04-12T05:42:00.072Z,11.40
2018-04-12T05:44:27.603Z,12.40
2018-04-12T05:46:55.074Z,12.90
2018-04-12T05:49:22.612Z,13.70
2018-04-12T05:51:50.140Z,14.30
2018-04-12T05:54:17.822Z,14.90
2018-04-12T05:56:46.058Z,14.60
2018-04-12T05:59:13.609Z,14.60
2018-04-12T06:01:41.109Z,13.40
2018-04-12T06:04:10.237Z,11.10
2018-04-12T06:06:38.721Z,11.20
2018-04-12T06:09:06.203Z,11.20
2018-04-12T06:11:33.723Z,11.30
2018-04-12T06:14:01.264Z,11.50
2018-04-12T06:16:28.835Z,11.70
2018-04-12T06:18:56.357Z,11.40
2018-04-12T06:21:23.843Z,11.50
2018-04-12T06:23:51.344Z,11.50
2018-04-12T06:26:18.864Z,11.20
2018-04-12T06:28:46.381Z,11.10
2018-04-12T06:31:13.871Z,11.00
2018-04-12T06:33:41.388Z,11.20
2018-04-12T06:36:08.850Z,11.90
2018-04-12T06:38:36.913Z,12.60
2018-04-12T06:41:04.407Z,12.70
2018-04-12T06:43:32.714Z,12.50
2018-04-12T06:46:00.250Z,12.50
2018-04-12T06:48:27.755Z,12.20
2018-04-12T06:50:55.229Z,12.10
2018-04-12T06:53:22.744Z,12.10
2018-04-12T06:55:50.285Z,12.10
2018-04-12T06:58:18.468Z,11.90
2018-04-12T07:00:46.190Z,11.80
2018-04-12T07:03:13.882Z,11.80
2018-04-12T07:05:42.315Z,11.80
2018-04-12T07:08:09.887Z,11.80
2018-04-12T07:10:38.538Z,11.90
2018-04-12T07:13:06.176Z,12.00
2018-04-12T07:15:33.644Z,12.00
2018-04-12T07:18:01.146Z,12.10
2018-04-12T07:20:28.670Z,12.10
2018-04-12T07:22:56.177Z,12.20
2018-04-12T07:25:24.609Z,12.70
2018-04-12T07:27:52.151Z,12.70
2018-04-12T07:30:19.701Z,13.40
2018-04-12T07:32:47.212Z,15.00
2018-04-12T07:35:15.646Z,16.70
2018-04-12T07:37:43.322Z,18.60
2018-04-12T07:40:10.780Z,20.80
2018-04-12T07:42:38.847Z,22.60
2018-04-12T07:45:06.398Z,23.40
2018-04-12T07:47:33.911Z,24.30
2018-04-12T07:50:02.216Z,25.80
2018-04-12T07:52:29.711Z,25.80
2018-04-12T07:54:57.263Z,26.00
2018-04-12T07:57:27.005Z,26.40
2018-04-12T07:59:54.471Z,26.80
2018-04-12T08:02:22.760Z,26.60
2018-04-12T08:04:51.027Z,27.10
2018-04-12T08:07:19.542Z,27.60
2018-04-12T08:09:47.047Z,27.60
2018-04-12T08:12:15.479Z,28.00
2018-04-12T08:14:42.946Z,27.30
2018-04-12T08:17:10.604Z,25.50
2018-04-12T08:19:38.101Z,25.00
2018-04-12T08:22:07.765Z,23.70
2018-04-12T08:24:35.250Z,22.90
2018-04-12T08:27:03.100Z,23.40
2018-04-12T08:29:30.974Z,24.20
2018-04-12T08:31:58.513Z,24.20
2018-04-12T08:34:26.090Z,23.90
2018-04-12T08:36:53.629Z,24.50
2018-04-12T08:39:21.921Z,24.60
2018-04-12T08:41:50.035Z,24.90
2018-04-12T08:44:17.513Z,24.70
2018-04-12T08:46:45.103Z,24.10
2018-04-12T08:49:12.595Z,22.50
2018-04-12T08:51:40.308Z,21.20
2018-04-12T08:54:07.803Z,19.90
2018-04-12T08:56:36.407Z,19.10
2018-04-12T08:59:03.924Z,18.60
2018-04-12T09:01:31.415Z,18.30
2018-04-12T09:03:58.870Z,18.10
2018-04-12T09:06:26.384Z,17.80
2018-04-12T09:08:53.855Z,17.60
2018-04-12T09:11:21.318Z,17.40
2018-04-12T09:13:48.801Z,17.20
2018-04-12T09:16:16.261Z,17.10
2018-04-12T09:18:43.759Z,17.10
2018-04-12T09:21:11.268Z,17.00
2018-04-12T09:23:38.774Z,17.00
2018-04-12T09:26:06.278Z,17.00
2018-04-12T09:28:33.807Z,16.80
2018-04-12T09:31:01.304Z,16.70
2018-04-12T09:33:28.786Z,16.80
2018-04-12T09:35:57.072Z,16.80
2018-04-12T09:38:24.540Z,16.80
2018-04-12T09:40:52.040Z,16.90
2018-04-12T09:43:19.513Z,16.90
2018-04-12T09:45:47.012Z,17.00
2018-04-12T09:48:14.511Z,17.00
2018-04-12T09:50:42.006Z,17.10
2018-04-12T09:53:10.271Z,17.10
2018-04-12T09:55:37.735Z,17.10
2018-04-12T09:58:05.982Z,16.90
2018-04-12T10:00:33.475Z,16.90
2018-04-12T10:03:00.979Z,17.00
2018-04-12T10:05:30.269Z,17.10
2018-04-12T10:08:03.451Z,17.20
2018-04-12T10:10:30.962Z,17.20
2018-04-12T10:12:58.485Z,17.30
2018-04-12T10:15:25.987Z,17.20
2018-04-12T10:17:54.306Z,17.30
2018-04-12T10:20:21.809Z,17.30
2018-04-12T10:22:49.317Z,17.30
2018-04-12T10:25:16.821Z,17.40
2018-04-12T10:27:44.348Z,17.40
2018-04-12T10:30:11.821Z,17.50
2018-04-12T10:32:39.346Z,17.50
2018-04-12T10:35:06.933Z,17.60
2018-04-12T10:37:34.418Z,17.80
2018-04-12T10:40:02.720Z,17.90
2018-04-12T10:42:30.198Z,17.90
2018-04-12T10:44:57.722Z,18.10
2018-04-12T10:47:25.946Z,18.40
2018-04-12T10:49:53.480Z,18.50
2018-04-12T10:52:20.958Z,18.60
2018-04-12T10:54:48.474Z,18.70
2018-04-12T10:57:16.781Z,18.80
2018-04-12T10:59:44.315Z,18.80
2018-04-12T11:02:12.592Z,19.00
2018-04-12T11:04:40.087Z,19.00
2018-04-12T11:07:07.603Z,19.20
2018-04-12T11:09:36.600Z,19.50
2018-04-12T11:12:05.302Z,19.50
2018-04-12T11:14:32.787Z,19.50
2018-04-12T11:17:00.306Z,19.60
2018-04-12T11:19:27.811Z,19.70
2018-04-12T11:21:56.083Z,19.70
2018-04-12T11:24:23.586Z,19.80
2018-04-12T11:26:51.834Z,19.70
2018-04-12T11:29:19.388Z,19.70
2018-04-12T11:31:46.994Z,19.60
2018-04-12T11:34:14.473Z,19.50
2018-04-12T11:36:41.976Z,19.60
2018-04-12T11:39:09.802Z,19.80
2018-04-12T11:41:37.274Z,19.70
2018-04-12T11:44:04.810Z,19.70
2018-04-12T11:46:32.301Z,19.50
2018-04-12T11:48:59.854Z,19.40
2018-04-12T11:51:27.336Z,19.30
2018-04-12T11:53:55.568Z,19.50
2018-04-12T11:56:23.085Z,19.50
2018-04-12T11:58:51.410Z,19.60
2018-04-12T12:01:18.922Z,19.60
2018-04-12T12:03:47.207Z,19.60
2018-04-12T12:06:14.747Z,19.60
2018-04-12T12:08:43.012Z,19.80
2018-04-12T12:11:10.475Z,19.80
2018-04-12T12:13:38.757Z,20.10
2018-04-12T12:16:07.039Z,20.20
2018-04-12T12:18:35.303Z,20.30
2018-04-12T12:21:03.614Z,20.20
2018-04-12T12:23:31.131Z,20.20
2018-04-12T12:25:59.423Z,20.10
2018-04-12T12:28:27.690Z,20.10
2018-04-12T12:30:55.936Z,20.10
2018-04-12T12:33:28.471Z,20.10
2018-04-12T12:35:55.938Z,20.20
2018-04-12T12:38:23.427Z,20.30
2018-04-12T12:40:51.002Z,20.50
2018-04-12T12:43:18.433Z,20.40
2018-04-12T12:45:45.944Z,20.40
2018-04-12T12:48:13.419Z,20.60
2018-04-12T12:50:40.929Z,20.70
2018-04-12T12:53:09.407Z,20.60
2018-04-12T12:55:36.886Z,20.50
2018-04-12T12:58:04.400Z,20.40
2018-04-12T13:00:32.692Z,20.50
2018-04-12T13:03:00.174Z,20.50
2018-04-12T13:05:28.411Z,20.80
2018-04-12T13:07:56.730Z,21.00
2018-04-12T13:10:24.985Z,21.10
2018-04-12T13:12:52.495Z,21.10
2018-04-12T13:15:19.995Z,21.10
2018-04-12T13:17:47.480Z,21.10
2018-04-12T13:20:15.743Z,21.00
2018-04-12T13:22:44.066Z,21.10
2018-04-12T13:25:11.543Z,21.10
2018-04-12T13:27:39.051Z,21.10
2018-04-12T13:30:07.309Z,21.20
2018-04-12T13:32:35.543Z,21.40
2018-04-12T13:35:03.096Z,21.40
2018-04-12T13:37:30.691Z,21.40
2018-04-12T13:39:58.215Z,21.40
2018-04-12T13:42:25.700Z,21.30
2018-04-12T13:44:53.223Z,21.20
2018-04-12T13:47:20.705Z,21.00
2018-04-12T13:49:48.235Z,20.90
2018-04-12T13:52:15.771Z,20.90
2018-04-12T13:54:43.283Z,20.90
2018-04-12T13:57:10.803Z,21.00
2018-04-12T13:59:38.351Z,20.90
2018-04-12T14:02:05.872Z,20.90
2018-04-12T14:04:34.127Z,20.90
2018-04-12T14:07:01.692Z,20.90
2018-04-12T14:09:29.167Z,21.00
2018-04-12T14:11:57.433Z,21.00
2018-04-12T14:14:24.921Z,20.90
2018-04-12T14:16:52.385Z,21.00
2018-04-12T14:19:19.936Z,21.10
2018-04-12T14:21:49.219Z,21.60
2018-04-12T14:24:16.742Z,21.50
2018-04-12T14:26:44.237Z,21.60
2018-04-12T14:29:12.487Z,21.50
2018-04-12T14:31:40.008Z,21.50
2018-04-12T14:34:10.683Z,21.30
2018-04-12T14:36:38.199Z,21.10
2018-04-12T14:39:06.597Z,21.10
2018-04-12T14:41:35.958Z,21.10
2018-04-12T14:44:03.525Z,21.00
2018-04-12T14:46:31.813Z,21.20
2018-04-12T14:48:59.389Z,21.20
2018-04-12T14:51:26.903Z,21.20
2018-04-12T14:53:55.234Z,21.10
2018-04-12T14:56:22.733Z,21.10
2018-04-12T14:58:50.977Z,21.20
2018-04-12T15:01:18.539Z,21.20
2018-04-12T15:03:46.062Z,21.30
2018-04-12T15:06:14.603Z,21.40
2018-04-12T15:08:43.703Z,21.40
2018-04-12T15:11:11.211Z,21.40
2018-04-12T15:13:39.611Z,21.20
2018-04-12T15:16:07.116Z,21.10
2018-04-12T15:18:34.632Z,21.00
2018-04-12T15:21:02.130Z,21.00
2018-04-12T15:23:29.668Z,20.90
2018-04-12T15:25:57.940Z,20.80
2018-04-12T15:28:26.183Z,20.90
2018-04-12T15:30:53.686Z,20.90
2018-04-12T15:33:22.091Z,20.90
2018-04-12T15:35:49.584Z,20.90
2018-04-12T15:38:19.579Z,20.80
2018-04-12T15:40:47.044Z,20.80
2018-04-12T15:43:15.509Z,20.80
2018-04-12T15:45:42.984Z,20.70
2018-04-12T15:48:11.280Z,20.60
2018-04-12T15:50:38.789Z,20.50
2018-04-12T15:53:06.302Z,20.40
2018-04-12T15:55:33.820Z,20.30
2018-04-12T15:58:01.319Z,20.10
2018-04-12T16:00:28.823Z,20.00
2018-04-12T16:02:56.302Z,19.90
2018-04-12T16:05:29.459Z,19.90
2018-04-12T16:07:56.942Z,19.90
2018-04-12T16:10:25.187Z,19.70
2018-04-12T16:12:52.702Z,19.70
2018-04-12T16:15:20.199Z,19.60
2018-04-12T16:17:47.700Z,19.50
2018-04-12T16:20:15.153Z,19.30
2018-04-12T16:22:42.679Z,19.20
2018-04-12T16:25:10.187Z,19.10
2018-04-12T16:27:39.692Z,18.90
2018-04-12T16:30:07.175Z,18.90
2018-04-12T16:32:36.408Z,18.80
2018-04-12T16:35:03.870Z,18.80
2018-04-12T16:37:31.374Z,18.80
2018-04-12T16:39:58.838Z,18.90
2018-04-12T16:42:27.069Z,18.70
2018-04-12T16:44:54.587Z,18.70
2018-04-12T16:47:22.819Z,18.50
2018-04-12T16:49:50.330Z,18.50
2018-04-12T16:52:17.815Z,18.40
2018-04-12T16:54:45.306Z,18.50
2018-04-12T16:57:12.905Z,18.40
2018-04-12T16:59:40.376Z,18.40
2018-04-12T17:02:07.911Z,18.40
2018-04-12T17:04:35.425Z,18.40
2018-04-12T17:07:02.917Z,18.30
2018-04-12T17:09:30.413Z,18.20
2018-04-12T17:11:57.932Z,18.10
2018-04-12T17:14:26.229Z,17.90
2018-04-12T17:16:53.716Z,17.80
2018-04-12T17:19:21.231Z,17.70
2018-04-12T17:21:50.434Z,17.40
2018-04-12T17:24:17.959Z,17.40
2018-04-12T17:26:46.450Z,17.30
2018-04-12T17:29:14.752Z,17.00
2018-04-12T17:31:42.264Z,16.90
2018-04-12T17:34:09.768Z,16.90
2018-04-12T17:36:38.221Z,16.80
2018-04-12T17:39:07.386Z,16.70
2018-04-12T17:41:34.896Z,16.60
2018-04-12T17:44:06.190Z,16.60
2018-04-12T17:46:36.943Z,16.50
2018-04-12T17:49:04.453Z,16.40
2018-04-12T17:51:31.925Z,16.30
2018-04-12T17:53:59.484Z,16.20
2018-04-12T17:56:26.991Z,16.10
2018-04-12T17:58:55.320Z,15.80
2018-04-12T18:01:22.811Z,15.80
2018-04-12T18:03:50.324Z,15.60
2018-04-12T18:06:17.897Z,15.50
2018-04-12T18:08:45.415Z,15.40
2018-04-12T18:11:13.660Z,15.20
2018-04-12T18:13:41.219Z,15.20
2018-04-12T18:16:08.732Z,15.20
2018-04-12T18:18:36.948Z,15.10
2018-04-12T18:21:04.467Z,14.90
2018-04-12T18:23:31.962Z,14.70
2018-04-12T18:25:59.494Z,14.50
2018-04-12T18:28:26.992Z,14.40
2018-04-12T18:30:54.542Z,14.30
2018-04-12T18:33:22.052Z,14.20
2018-04-12T18:35:49.567Z,14.20
2018-04-12T18:38:17.235Z,14.20
2018-04-12T18:40:45.509Z,14.50
2018-04-12T18:43:13.028Z,14.40
2018-04-12T18:45:40.528Z,14.60
2018-04-12T18:48:08.084Z,14.50
2018-04-12T18:50:36.414Z,14.40
2018-04-12T18:53:03.975Z,14.40
2018-04-12T18:55:31.516Z,14.60
2018-04-12T18:57:59.060Z,14.60
2018-04-12T19:00:26.575Z,14.90
2018-04-12T19:02:54.119Z,15.20
2018-04-12T19:05:21.661Z,15.30
2018-04-12T19:07:49.161Z,15.10
2018-04-12T19:10:16.708Z,14.90
2018-04-12T19:12:44.201Z,14.70
2018-04-12T19:15:12.446Z,14.70
2018-04-12T19:17:39.926Z,14.70
2018-04-12T19:20:08.206Z,14.60
2018-04-12T19:22:36.453Z,14.60
2018-04-12T19:25:05.915Z,14.60
2018-04-12T19:27:33.419Z,14.70
2018-04-12T19:30:00.860Z,14.80
2018-04-12T19:32:28.339Z,14.80
2018-04-12T19:34:55.856Z,14.70
2018-04-12T19:37:23.396Z,14.70
2018-04-12T19:39:50.926Z,14.80
2018-04-12T19:42:19.203Z,14.80
2018-04-12T19:44:47.500Z,14.70
2018-04-12T19:47:15.052Z,14.70
2018-04-12T19:49:42.574Z,14.60
2018-04-12T19:52:10.149Z,14.60
2018-04-12T19:54:37.677Z,14.50
2018-04-12T19:57:05.216Z,14.50
2018-04-12T19:59:32.712Z,14.50
2018-04-12T20:02:00.220Z,14.50
2018-04-12T20:04:27.735Z,14.50
2018-04-12T20:06:55.231Z,14.50
2018-04-12T20:09:22.763Z,14.40
2018-04-12T20:11:50.995Z,14.40
2018-04-12T20:14:18.489Z,14.40
2018-04-12T20:16:47.682Z,14.10
2018-04-12T20:19:15.956Z,13.90
2018-04-12T20:21:44.410Z,13.90
2018-04-12T20:24:11.943Z,13.80
2018-04-12T20:26:39.421Z,13.90
2018-04-12T20:29:06.964Z,14.00
2018-04-12T20:31:34.506Z,14.10
2018-04-12T20:34:02.027Z,14.10
2018-04-12T20:36:30.326Z,14.00
2018-04-12T20:38:57.843Z,13.90
2018-04-12T20:41:25.347Z,13.90
2018-04-12T20:43:53.753Z,13.90
2018-04-12T20:46:21.226Z,13.80
2018-04-12T20:48:48.758Z,13.90
2018-04-12T20:51:18.187Z,13.90
2018-04-12T20:53:45.695Z,14.00
2018-04-12T20:56:13.205Z,13.90
2018-04-12T20:58:40.692Z,13.80
2018-04-12T21:01:08.930Z,13.60
2018-04-12T21:03:36.401Z,13.60
2018-04-12T21:06:03.903Z,13.50
2018-04-12T21:08:31.746Z,13.50
2018-04-12T21:11:00.019Z,13.50
2018-04-12T21:13:28.326Z,13.50
2018-04-12T21:15:55.831Z,13.50
2018-04-12T21:18:23.336Z,13.50
2018-04-12T21:20:51.803Z,13.50
2018-04-12T21:23:20.087Z,13.40
2018-04-12T21:25:48.367Z,13.40
2018-04-12T21:28:15.862Z,13.40
2018-04-12T21:30:43.366Z,13.40
2018-04-12T21:33:11.624Z,13.40
2018-04-12T21:35:39.151Z,13.40
2018-04-12T21:38:06.654Z,13.40
2018-04-12T21:40:34.923Z,13.40
2018-04-12T21:43:03.221Z,13.50
2018-04-12T21:45:30.687Z,13.50
2018-04-12T21:47:59.134Z,13.40
2018-04-12T21:50:27.448Z,13.30
2018-04-12T21:52:54.919Z,13.30
2018-04-12T21:55:22.448Z,13.30
2018-04-12T21:57:49.940Z,13.40
2018-04-12T22:00:17.441Z,13.30
2018-04-12T22:02:44.968Z,13.30
2018-04-12T22:05:12.446Z,13.20
2018-04-12T22:07:39.951Z,13.20
2018-04-12T22:10:07.411Z,13.10
2018-04-12T22:12:34.939Z,13.20
2018-04-12T22:15:03.221Z,13.20
2018-04-12T22:17:31.457Z,13.20
2018-04-12T22:19:58.976Z,13.20
2018-04-12T22:22:26.479Z,13.30
2018-04-12T22:24:53.975Z,13.20
2018-04-12T22:27:22.279Z,13.20
2018-04-12T22:29:49.779Z,13.20
2018-04-12T22:32:17.271Z,13.10
2018-04-12T22:34:44.755Z,13.00
2018-04-12T22:37:12.262Z,13.00
2018-04-12T22:39:40.501Z,12.80
2018-04-12T22:42:07.998Z,12.80
2018-04-12T22:44:36.293Z,12.70
2018-04-12T22:47:03.787Z,12.70
2018-04-12T22:49:32.031Z,12.40
2018-04-12T22:51:59.579Z,12.40
2018-04-12T22:54:28.851Z,12.20
2018-04-12T22:56:56.363Z,12.20
2018-04-12T22:59:23.841Z,12.10
2018-04-12T23:01:51.388Z,12.00
2018-04-12T23:04:18.912Z,12.00
2018-04-12T23:06:46.444Z,11.90
2018-04-12T23:09:13.955Z,11.80
2018-04-12T23:11:41.462Z,11.70
2018-04-12T23:14:08.984Z,11.70
2018-04-12T23:16:37.379Z,11.60
2018-04-12T23:19:04.840Z,11.60
2018-04-12T23:21:32.371Z,11.60
2018-04-12T23:24:00.185Z,11.60
2018-04-12T23:26:28.436Z,11.70
2018-04-12T23:28:55.972Z,11.60
2018-04-12T23:31:23.476Z,11.60
2018-04-12T23:33:51.796Z,11.60
2018-04-12T23:36:19.303Z,11.60
2018-04-12T23:38:46.771Z,11.60
2018-04-12T23:41:15.012Z,11.60
2018-04-12T23:43:42.494Z,11.60
2018-04-12T23:46:10.782Z,11.80
2018-04-12T23:48:39.048Z,11.70
2018-04-12T23:51:06.571Z,11.60
2018-04-12T23:53:34.092Z,11.50
2018-04-12T23:56:01.610Z,11.40
2018-04-12T23:58:29.115Z,11.40
